Time;durP1;ratioP1;P1;durP2;ratioP2;P2;SDS_P1;SDS_P2;PMS_P1;PMS_P2;Temp;Humidity;BMP_temperature;BMP_pressure;BME280_temperature;BME280_humidity;BME280_pressure;Samples;Min_cycle;Max_cycle;Signal;HPM_P1;HPM_P2
2023/05/05 00:01:15;;;;;;;8.35;1.60;;;13.60;99.90;;;;;;5061885;28;20080;-62
2023/05/05 00:03:42;;;;;;;3.50;1.25;;;13.60;99.90;;;;;;5062302;28;20064;-63
2023/05/05 00:06:09;;;;;;;6.40;3.63;;;13.50;99.90;;;;;;5065136;28;20098;-64
2023/05/05 00:08:35;;;;;;;5.88;1.27;;;13.60;99.90;;;;;;5066051;28;20112;-61
2023/05/05 00:11:02;;;;;;;7.82;1.38;;;13.60;99.90;;;;;;5062927;28;20502;-62
2023/05/05 00:13:29;;;;;;;4.55;1.35;;;13.60;99.90;;;;;;5051322;28;20124;-61
2023/05/05 00:15:56;;;;;;;9.90;3.55;;;13.50;99.90;;;;;;5057276;28;20106;-62
2023/05/05 00:18:22;;;;;;;6.82;1.48;;;13.50;99.90;;;;;;5060634;28;20051;-62
2023/05/05 00:20:49;;;;;;;8.88;3.08;;;13.50;99.90;;;;;;5054349;28;20057;-62
2023/05/05 00:23:17;;;;;;;5.85;1.35;;;13.50;99.90;;;;;;5057819;28;20048;-62
2023/05/05 00:25:44;;;;;;;6.50;2.17;;;13.50;99.90;;;;;;5065077;28;20119;-62
2023/05/05 00:28:12;;;;;;;5.55;2.03;;;13.40;99.90;;;;;;5053301;28;20045;-62
2023/05/05 00:30:39;;;;;;;5.00;1.50;;;13.50;99.90;;;;;;5065010;28;20518;-62
2023/05/05 00:33:06;;;;;;;8.20;1.30;;;13.50;99.90;;;;;;5052123;28;20052;-64
2023/05/05 00:35:33;;;;;;;2.65;1.40;;;13.50;99.90;;;;;;5064585;28;20568;-62
2023/05/05 00:38:00;;;;;;;5.07;1.33;;;13.50;99.90;;;;;;5056427;28;20044;-62
2023/05/05 00:40:27;;;;;;;6.22;1.92;;;13.50;99.90;;;;;;5063311;28;20485;-62
2023/05/05 00:42:54;;;;;;;3.67;1.05;;;13.40;99.90;;;;;;5056895;28;20127;-62
2023/05/05 00:45:20;;;;;;;4.00;1.42;;;13.40;99.90;;;;;;5060665;28;20041;-62
2023/05/05 00:47:50;;;;;;;4.03;1.13;;;13.40;99.90;;;;;;5057032;28;20049;-62
2023/05/05 00:50:22;;;;;;;7.57;1.50;;;13.40;99.90;;;;;;5060709;28;20067;-62
2023/05/05 00:52:50;;;;;;;7.05;1.85;;;13.40;99.90;;;;;;5067619;28;20226;-62
2023/05/05 00:55:16;;;;;;;3.60;1.50;;;13.30;99.90;;;;;;5055072;28;20059;-61
2023/05/05 00:57:43;;;;;;;7.93;1.33;;;13.40;99.90;;;;;;5056149;28;20131;-61
2023/05/05 01:00:10;;;;;;;3.90;1.25;;;13.30;99.90;;;;;;5039929;28;20127;-61
2023/05/05 01:02:38;;;;;;;3.97;1.30;;;13.30;99.90;;;;;;5059815;28;20045;-62
2023/05/05 01:05:08;;;;;;;6.22;1.80;;;13.30;99.90;;;;;;5056993;28;20041;-62
2023/05/05 01:07:44;;;;;;;6.85;1.60;;;13.30;99.90;;;;;;5043557;28;20080;-62
2023/05/05 01:10:16;;;;;;;4.53;1.52;;;13.30;99.90;;;;;;5063037;28;20051;-63
2023/05/05 01:13:04;;;;;;;3.92;1.63;;;13.30;99.90;;;;;;5060894;28;20404;-62
2023/05/05 01:15:36;;;;;;;8.45;1.40;;;13.30;99.90;;;;;;5051376;28;20045;-62
2023/05/05 01:18:24;;;;;;;9.23;1.63;;;13.20;99.90;;;;;;5049615;28;20044;-62
2023/05/05 01:21:13;;;;;;;8.13;2.13;;;13.20;99.90;;;;;;5068059;28;20060;-63
2023/05/05 01:24:24;;;;;;;6.13;1.65;;;13.20;99.90;;;;;;5065981;28;20051;-62
2023/05/05 01:26:58;;;;;;;6.60;1.40;;;13.10;99.90;;;;;;5058902;28;20418;-61
2023/05/05 01:29:39;;;;;;;5.28;1.70;;;13.10;99.90;;;;;;5067975;28;20609;-61
2023/05/05 01:32:14;;;;;;;9.80;1.95;;;13.10;99.90;;;;;;5065743;28;20063;-61
2023/05/05 01:34:59;;;;;;;7.82;2.63;;;13.00;99.90;;;;;;5067110;28;20407;-61
2023/05/05 01:37:29;;;;;;;7.70;1.60;;;13.00;99.90;;;;;;5067042;28;20044;-61
2023/05/05 01:39:58;;;;;;;8.00;2.00;;;13.00;99.90;;;;;;5049030;28;20049;-62
2023/05/05 01:42:25;;;;;;;6.28;1.73;;;13.00;99.90;;;;;;5066973;28;20059;-61
2023/05/05 01:44:52;;;;;;;8.85;2.13;;;13.00;99.90;;;;;;5068163;28;20406;-61
2023/05/05 01:47:20;;;;;;;8.38;2.00;;;13.00;99.90;;;;;;5067966;28;20469;-62
2023/05/05 01:49:46;;;;;;;9.57;1.77;;;12.90;99.90;;;;;;5066890;28;20055;-62
2023/05/05 01:52:14;;;;;;;8.40;1.58;;;12.90;99.90;;;;;;5049886;28;20119;-62
2023/05/05 01:54:41;;;;;;;11.30;2.30;;;12.90;99.90;;;;;;5047294;28;20063;-62
2023/05/05 01:57:08;;;;;;;7.13;2.00;;;12.80;99.90;;;;;;5067396;28;20565;-62
2023/05/05 01:59:36;;;;;;;6.82;1.63;;;12.80;99.90;;;;;;5073119;28;20486;-62
2023/05/05 02:02:03;;;;;;;5.38;1.90;;;12.80;99.90;;;;;;5071537;28;20044;-62
2023/05/05 02:04:31;;;;;;;9.55;2.00;;;12.70;99.90;;;;;;5071379;28;20051;-62
2023/05/05 02:06:57;;;;;;;12.07;2.03;;;12.70;99.90;;;;;;5053796;28;20040;-62
2023/05/05 02:09:25;;;;;;;8.95;2.15;;;12.70;99.90;;;;;;5070140;28;20410;-63
2023/05/05 02:11:51;;;;;;;6.70;1.83;;;12.70;99.90;;;;;;5053927;28;20044;-63
2023/05/05 02:14:19;;;;;;;7.65;1.65;;;12.70;99.90;;;;;;5071026;28;20070;-62
2023/05/05 02:16:46;;;;;;;4.65;1.50;;;12.70;99.90;;;;;;5069660;28;20128;-62
2023/05/05 02:19:13;;;;;;;6.63;1.83;;;12.70;99.90;;;;;;5070652;28;20048;-62
2023/05/05 02:21:40;;;;;;;7.80;1.77;;;12.70;99.90;;;;;;5069878;28;20063;-62
2023/05/05 02:24:07;;;;;;;6.32;1.88;;;12.70;99.90;;;;;;5070475;28;20048;-62
2023/05/05 02:26:40;;;;;;;5.50;2.35;;;12.70;99.90;;;;;;5053210;28;20511;-63
2023/05/05 02:29:08;;;;;;;6.88;1.90;;;12.60;99.90;;;;;;5070657;28;20079;-62
2023/05/05 02:31:40;;;;;;;5.03;2.13;;;12.60;99.90;;;;;;5069771;28;20530;-62
2023/05/05 02:34:07;;;;;;;11.13;2.40;;;12.60;99.90;;;;;;5069238;28;20503;-61
2023/05/05 02:36:37;;;;;;;11.02;4.20;;;12.50;99.90;;;;;;5053376;28;20226;-62
2023/05/05 02:39:10;;;;;;;16.70;3.28;;;12.50;99.90;;;;;;5052039;28;20125;-62
2023/05/05 02:41:37;;;;;;;8.63;1.63;;;12.50;99.90;;;;;;5071113;28;20426;-62
2023/05/05 02:44:04;;;;;;;7.25;1.80;;;12.50;99.90;;;;;;5057975;28;20067;-62
2023/05/05 02:46:31;;;;;;;9.15;2.67;;;12.50;99.90;;;;;;5050921;28;20073;-62
2023/05/05 02:48:58;;;;;;;12.13;2.55;;;12.60;99.90;;;;;;5055310;28;20356;-63
2023/05/05 02:51:26;;;;;;;6.28;2.00;;;12.70;99.90;;;;;;5056389;28;20071;-62
2023/05/05 02:53:53;;;;;;;8.77;2.30;;;12.70;99.90;;;;;;5061108;28;20045;-60
2023/05/05 02:56:40;;;;;;;9.73;1.90;;;12.80;99.90;;;;;;5063844;28;20123;-63
2023/05/05 02:59:37;;;;;;;10.82;2.30;;;12.90;99.90;;;;;;5065152;28;20059;-60
2023/05/05 03:02:23;;;;;;;12.77;2.53;;;12.90;99.90;;;;;;5059084;28;20040;-61
2023/05/05 03:05:02;;;;;;;10.27;2.45;;;13.00;99.90;;;;;;5068704;28;20102;-63
2023/05/05 03:07:37;;;;;;;11.90;2.72;;;13.10;99.90;;;;;;5070602;28;20045;-64
2023/05/05 03:10:11;;;;;;;8.25;2.42;;;13.00;99.90;;;;;;5056791;28;20044;-63
2023/05/05 03:12:43;;;;;;;10.43;2.20;;;13.10;99.90;;;;;;5059964;28;20040;-62
2023/05/05 03:15:11;;;;;;;7.82;2.45;;;13.10;99.90;;;;;;5067862;28;20036;-62
2023/05/05 03:17:38;;;;;;;8.43;2.08;;;13.10;99.90;;;;;;5068959;28;20131;-62
2023/05/05 03:20:05;;;;;;;14.85;2.35;;;13.10;99.90;;;;;;5068295;28;20044;-62
2023/05/05 03:22:35;;;;;;;10.80;3.00;;;13.00;99.90;;;;;;5036322;28;20045;-61
2023/05/05 03:25:03;;;;;;;9.63;2.17;;;13.10;99.90;;;;;;5069566;28;20076;-61
2023/05/05 03:27:30;;;;;;;16.48;3.40;;;13.10;99.90;;;;;;5069106;28;20056;-62
2023/05/05 03:29:56;;;;;;;13.23;3.38;;;13.10;99.90;;;;;;5051675;28;20052;-62
2023/05/05 03:32:23;;;;;;;13.43;2.80;;;13.10;99.90;;;;;;5069586;28;20509;-62
2023/05/05 03:34:50;;;;;;;11.27;3.25;;;13.10;99.90;;;;;;5069698;28;20054;-62
2023/05/05 03:37:16;;;;;;;16.05;3.33;;;13.20;99.90;;;;;;5064867;28;20062;-62
2023/05/05 03:39:43;;;;;;;12.98;2.47;;;13.20;99.90;;;;;;5055061;28;20061;-61
2023/05/05 03:42:10;;;;;;;11.15;3.30;;;13.20;99.90;;;;;;5065509;28;20426;-62
2023/05/05 03:44:37;;;;;;;10.50;3.03;;;13.20;99.90;;;;;;5053767;28;20045;-61
2023/05/05 03:47:03;;;;;;;16.85;2.90;;;13.30;99.90;;;;;;5065048;28;20063;-62
2023/05/05 03:49:30;;;;;;;16.25;3.40;;;13.30;99.90;;;;;;5053372;28;20140;-62
2023/05/05 03:51:57;;;;;;;13.32;3.33;;;13.30;99.90;;;;;;5056986;28;20219;-62
2023/05/05 03:54:24;;;;;;;16.00;2.88;;;13.20;99.90;;;;;;5060767;28;20107;-61
2023/05/05 03:56:50;;;;;;;14.88;2.90;;;13.30;99.90;;;;;;5057008;28;20161;-62
2023/05/05 03:59:17;;;;;;;16.70;3.85;;;13.30;99.90;;;;;;5042683;28;20049;-61
2023/05/05 04:01:45;;;;;;;23.98;4.03;;;13.30;99.90;;;;;;5057046;28;20120;-62
2023/05/05 04:04:12;;;;;;;19.00;3.88;;;13.20;99.90;;;;;;5055052;28;20051;-62
2023/05/05 04:06:38;;;;;;;14.50;3.47;;;13.20;99.90;;;;;;5064792;28;20040;-61
2023/05/05 04:09:06;;;;;;;17.77;4.03;;;13.20;99.90;;;;;;5067701;28;20036;-61
2023/05/05 04:11:32;;;;;;;18.67;4.00;;;13.20;99.90;;;;;;5069508;28;20094;-62
2023/05/05 04:13:59;;;;;;;12.57;4.35;;;13.20;99.90;;;;;;5067466;28;20075;-62
2023/05/05 04:16:26;;;;;;;19.35;5.80;;;13.10;99.90;;;;;;5069237;28;20046;-62
2023/05/05 04:18:54;;;;;;;14.20;4.00;;;13.10;99.90;;;;;;5068866;28;20075;-61
2023/05/05 04:21:20;;;;;;;16.88;4.20;;;13.10;99.90;;;;;;5068978;28;20049;-62
2023/05/05 04:23:47;;;;;;;11.07;4.18;;;13.10;99.90;;;;;;5063230;28;20122;-62
2023/05/05 04:26:14;;;;;;;18.60;4.85;;;13.10;99.90;;;;;;5053961;28;20044;-62
2023/05/05 04:28:41;;;;;;;13.27;3.75;;;13.10;99.90;;;;;;5064426;28;20445;-62
2023/05/05 04:31:09;;;;;;;18.75;4.10;;;13.00;99.90;;;;;;5035813;28;20127;-62
2023/05/05 04:33:36;;;;;;;11.90;3.95;;;13.00;99.90;;;;;;5064856;28;20048;-62
2023/05/05 04:36:03;;;;;;;14.77;4.50;;;13.00;99.90;;;;;;5055725;28;20044;-62
2023/05/05 04:38:29;;;;;;;13.80;4.90;;;13.00;99.90;;;;;;5054122;28;20499;-62
2023/05/05 04:40:56;;;;;;;15.98;4.80;;;13.00;99.90;;;;;;5061584;28;20045;-61
2023/05/05 04:43:23;;;;;;;16.05;4.80;;;13.00;99.90;;;;;;5057590;28;20048;-62
2023/05/05 04:45:53;;;;;;;19.80;4.35;;;13.00;99.90;;;;;;5063505;28;20474;-62
2023/05/05 04:48:20;;;;;;;11.98;3.88;;;13.10;99.90;;;;;;5070393;28;20082;-62
2023/05/05 04:50:47;;;;;;;15.63;4.97;;;13.10;99.90;;;;;;5071426;28;20049;-62
2023/05/05 04:53:13;;;;;;;15.98;4.13;;;13.20;99.90;;;;;;5071463;28;20127;-62
2023/05/05 04:55:40;;;;;;;15.68;4.05;;;13.20;99.90;;;;;;5069724;28;20048;-62
2023/05/05 04:58:07;;;;;;;13.85;4.18;;;13.30;99.90;;;;;;5050754;28;20073;-62
2023/05/05 05:00:36;;;;;;;9.25;4.00;;;13.20;99.90;;;;;;5068896;28;20509;-62
2023/05/05 05:03:03;;;;;;;12.38;4.18;;;13.30;99.90;;;;;;5065066;28;20080;-62
2023/05/05 05:05:30;;;;;;;15.75;4.70;;;13.30;99.90;;;;;;5056004;28;20415;-62
2023/05/05 05:07:57;;;;;;;16.38;4.18;;;13.30;99.90;;;;;;5064077;28;20041;-62
2023/05/05 05:10:24;;;;;;;19.05;5.00;;;13.30;99.90;;;;;;5063197;28;20049;-62
2023/05/05 05:12:50;;;;;;;13.88;4.57;;;13.30;99.90;;;;;;5053096;28;20480;-61
2023/05/05 05:15:17;;;;;;;13.85;4.28;;;13.30;99.90;;;;;;5064420;28;20040;-61
2023/05/05 05:17:44;;;;;;;13.65;3.88;;;13.30;99.90;;;;;;5054470;28;20498;-62
2023/05/05 05:20:11;;;;;;;13.60;4.65;;;13.30;99.90;;;;;;5051104;28;20065;-61
2023/05/05 05:22:37;;;;;;;12.70;4.05;;;13.30;99.90;;;;;;5060978;28;20045;-62
2023/05/05 05:25:05;;;;;;;12.43;3.75;;;13.30;99.90;;;;;;5066407;28;20044;-62
2023/05/05 05:27:31;;;;;;;13.70;4.80;;;13.30;99.90;;;;;;5066791;28;20076;-62
2023/05/05 05:29:58;;;;;;;14.27;3.75;;;13.40;99.90;;;;;;5066635;28;20052;-63
2023/05/05 05:32:25;;;;;;;17.20;3.85;;;13.50;99.90;;;;;;5063674;28;20139;-61
2023/05/05 05:34:52;;;;;;;19.85;4.30;;;13.50;99.90;;;;;;5069484;28;20044;-62
2023/05/05 05:37:19;;;;;;;13.05;3.88;;;13.70;99.90;;;;;;5075428;28;20111;-62
2023/05/05 05:39:51;;;;;;;12.52;3.85;;;13.70;99.90;;;;;;5066698;28;20475;-62
2023/05/05 05:42:18;;;;;;;12.18;4.00;;;13.80;99.90;;;;;;5068200;28;20068;-61
2023/05/05 05:44:45;;;;;;;15.85;3.50;;;13.80;99.90;;;;;;4709621;28;10000593;-62
2023/05/05 05:47:12;;;;;;;20.77;3.63;;;13.80;99.90;;;;;;5058996;28;20127;-61
2023/05/05 05:49:39;;;;;;;9.07;3.78;;;13.90;99.90;;;;;;5064185;28;20403;-62
2023/05/05 05:52:05;;;;;;;11.07;3.72;;;13.90;99.90;;;;;;5062235;28;20132;-62
2023/05/05 05:54:34;;;;;;;13.55;3.85;;;13.90;99.90;;;;;;5066330;28;20136;-63
2023/05/05 05:57:03;;;;;;;11.27;3.22;;;13.90;99.90;;;;;;5066287;28;20487;-62
2023/05/05 05:59:30;;;;;;;11.57;3.15;;;14.00;99.90;;;;;;5052171;28;20056;-62
2023/05/05 06:01:57;;;;;;;9.55;3.45;;;13.90;99.90;;;;;;5068938;28;20794;-62
2023/05/05 06:04:24;;;;;;;14.55;4.25;;;13.80;99.90;;;;;;5062839;28;20048;-62
2023/05/05 06:06:51;;;;;;;11.10;4.55;;;13.80;99.90;;;;;;5039743;28;20049;-62
2023/05/05 06:09:18;;;;;;;13.52;4.20;;;13.90;99.90;;;;;;5047519;28;20047;-61
2023/05/05 06:11:45;;;;;;;11.02;3.30;;;13.90;99.90;;;;;;5063663;28;20514;-62
2023/05/05 06:14:11;;;;;;;12.23;3.92;;;13.90;99.90;;;;;;5064220;28;20511;-62
2023/05/05 06:16:38;;;;;;;18.30;3.83;;;13.90;99.90;;;;;;5061752;28;20044;-62
2023/05/05 06:19:08;;;;;;;17.83;4.13;;;13.90;99.90;;;;;;5067572;28;20110;-61
2023/05/05 06:21:38;;;;;;;13.82;3.40;;;13.90;99.90;;;;;;5056984;28;20061;-61
2023/05/05 06:24:05;;;;;;;12.77;4.00;;;14.00;99.90;;;;;;5069753;28;20095;-63
2023/05/05 06:26:32;;;;;;;13.15;4.07;;;14.00;99.90;;;;;;5070756;28;20044;-63
2023/05/05 06:28:58;;;;;;;18.23;5.63;;;14.00;99.90;;;;;;5067806;28;20055;-63
2023/05/05 06:31:25;;;;;;;22.83;3.53;;;14.00;99.90;;;;;;5065068;28;20049;-62
2023/05/05 06:33:52;;;;;;;15.55;3.55;;;14.10;99.90;;;;;;5062799;28;20127;-62
2023/05/05 06:36:19;;;;;;;16.52;4.47;;;14.10;99.90;;;;;;5058252;28;20480;-61
2023/05/05 06:38:46;;;;;;;11.18;3.08;;;14.10;99.90;;;;;;5067686;28;20131;-61
2023/05/05 06:41:12;;;;;;;11.25;3.40;;;14.20;99.90;;;;;;5064804;28;20195;-62
2023/05/05 06:43:41;;;;;;;13.50;3.88;;;14.20;99.90;;;;;;5064263;28;20127;-62
2023/05/05 06:46:08;;;;;;;15.07;4.25;;;14.30;99.90;;;;;;5068046;28;20054;-62
2023/05/05 06:48:35;;;;;;;11.20;3.75;;;14.30;99.90;;;;;;5068827;28;20286;-61
2023/05/05 06:51:02;;;;;;;17.42;3.10;;;14.30;99.90;;;;;;5069504;28;20090;-61
2023/05/05 06:53:29;;;;;;;9.63;3.22;;;14.40;99.90;;;;;;5067896;28;20344;-61
2023/05/05 06:55:56;;;;;;;14.02;3.20;;;14.30;99.90;;;;;;5066034;28;20094;-61
2023/05/05 06:58:23;;;;;;;7.05;3.22;;;14.30;99.90;;;;;;5065763;28;20050;-61
2023/05/05 07:00:49;;;;;;;7.93;3.08;;;14.40;99.90;;;;;;5066668;28;21002;-61
2023/05/05 07:03:16;;;;;;;11.85;3.08;;;14.50;99.90;;;;;;5067784;28;20037;-61
2023/05/05 07:05:43;;;;;;;10.48;2.63;;;14.50;99.90;;;;;;5068051;28;20454;-61
2023/05/05 07:08:10;;;;;;;11.32;3.60;;;14.60;99.90;;;;;;5067417;28;20063;-61
2023/05/05 07:10:37;;;;;;;12.57;2.88;;;14.60;99.90;;;;;;5069917;28;20040;-61
2023/05/05 07:13:05;;;;;;;7.20;2.72;;;14.60;99.90;;;;;;5068895;28;20518;-62
2023/05/05 07:15:32;;;;;;;20.27;3.75;;;14.60;99.90;;;;;;5068954;28;20131;-61
2023/05/05 07:17:59;;;;;;;12.57;2.55;;;14.70;99.90;;;;;;5065124;28;20056;-61
2023/05/05 07:20:26;;;;;;;7.53;2.75;;;14.70;99.90;;;;;;5066287;28;20091;-62
2023/05/05 07:22:53;;;;;;;9.50;2.75;;;14.80;99.90;;;;;;5058025;28;20053;-61
2023/05/05 07:25:20;;;;;;;12.68;3.25;;;14.80;99.90;;;;;;5058305;28;20378;-60
2023/05/05 07:27:46;;;;;;;17.50;3.22;;;14.80;99.90;;;;;;5059880;28;20053;-60
2023/05/05 07:30:13;;;;;;;19.27;4.03;;;14.80;99.90;;;;;;5060920;28;20052;-60
2023/05/05 07:32:44;;;;;;;12.63;2.92;;;14.70;99.90;;;;;;5055880;28;20049;-61
2023/05/05 07:35:11;;;;;;;13.32;3.65;;;14.70;99.90;;;;;;5062908;28;20049;-62
2023/05/05 07:37:38;;;;;;;12.27;2.88;;;14.80;99.90;;;;;;5061763;28;20494;-62
2023/05/05 07:40:06;;;;;;;17.13;2.70;;;14.80;99.90;;;;;;5062828;28;20041;-61
2023/05/05 07:42:33;;;;;;;15.15;3.13;;;14.80;99.90;;;;;;5064518;28;20084;-61
2023/05/05 07:45:00;;;;;;;18.27;3.03;;;14.90;99.90;;;;;;5062775;28;20075;-61
2023/05/05 07:47:27;;;;;;;12.20;2.38;;;15.00;99.90;;;;;;5059658;28;20089;-61
2023/05/05 07:49:54;;;;;;;16.45;2.28;;;15.00;99.90;;;;;;5064501;28;20040;-61
2023/05/05 07:52:20;;;;;;;14.77;2.28;;;14.90;99.90;;;;;;5056041;28;20131;-61
2023/05/05 07:55:07;;;;;;;10.60;2.55;;;14.80;99.90;;;;;;5055434;28;20242;-62
2023/05/05 07:57:34;;;;;;;12.50;3.58;;;14.90;99.90;;;;;;5059462;28;21258;-62
2023/05/05 08:00:01;;;;;;;12.25;2.10;;;14.90;99.90;;;;;;5061523;28;20361;-62
2023/05/05 08:02:28;;;;;;;14.88;2.25;;;14.90;99.90;;;;;;5059864;28;20503;-61
2023/05/05 08:04:55;;;;;;;9.45;1.55;;;14.90;99.90;;;;;;5056059;28;20052;-61
2023/05/05 08:07:22;;;;;;;12.13;1.98;;;15.00;99.90;;;;;;5069629;28;20559;-61
2023/05/05 08:09:48;;;;;;;10.73;2.75;;;15.00;99.90;;;;;;4710370;28;9999742;-61
2023/05/05 08:12:17;;;;;;;14.43;2.72;;;15.10;99.90;;;;;;5059662;28;20079;-61
2023/05/05 08:14:44;;;;;;;7.32;1.83;;;15.20;99.90;;;;;;5050823;28;20080;-61
2023/05/05 08:17:11;;;;;;;15.50;2.55;;;15.30;99.90;;;;;;5060073;28;20119;-61
2023/05/05 08:19:38;;;;;;;9.23;1.63;;;15.40;99.90;;;;;;5071083;28;20052;-62
2023/05/05 08:22:05;;;;;;;9.98;1.73;;;15.40;99.90;;;;;;5070833;28;20059;-61
2023/05/05 08:24:32;;;;;;;12.30;1.85;;;15.30;99.90;;;;;;5069494;28;20059;-61
2023/05/05 08:26:58;;;;;;;9.10;2.15;;;15.30;99.90;;;;;;5068441;28;20083;-60
2023/05/05 08:29:25;;;;;;;7.68;1.83;;;15.30;99.90;;;;;;5069845;28;20067;-61
2023/05/05 08:31:52;;;;;;;9.90;1.67;;;15.30;99.90;;;;;;5068642;28;20048;-61
2023/05/05 08:34:19;;;;;;;8.40;1.80;;;15.30;99.90;;;;;;5066814;28;20045;-62
2023/05/05 08:36:47;;;;;;;3.90;1.25;;;15.40;99.90;;;;;;5068477;28;20048;-62
2023/05/05 08:39:14;;;;;;;8.60;1.45;;;15.50;99.90;;;;;;5066791;28;20040;-61
2023/05/05 08:41:41;;;;;;;9.07;1.80;;;15.70;99.90;;;;;;5068541;28;20457;-60
2023/05/05 08:44:09;;;;;;;11.13;1.70;;;15.80;99.90;;;;;;5067250;28;20603;-62
2023/05/05 08:46:35;;;;;;;9.30;1.73;;;15.80;99.90;;;;;;5067069;28;20037;-62
2023/05/05 08:49:02;;;;;;;10.88;1.77;;;15.90;99.90;;;;;;5067795;28;20551;-62
2023/05/05 08:51:32;;;;;;;9.55;1.48;;;16.00;99.90;;;;;;5034061;28;20048;-62
2023/05/05 08:54:02;;;;;;;91.25;7.78;;;16.00;99.90;;;;;;5050827;28;20044;-62
2023/05/05 08:56:32;;;;;;;9.27;1.67;;;16.00;99.90;;;;;;5067059;28;20056;-62
2023/05/05 08:59:00;;;;;;;3.78;1.30;;;16.00;99.90;;;;;;5057651;28;20769;-62
2023/05/05 09:01:27;;;;;;;6.97;1.83;;;16.10;99.90;;;;;;5068375;28;20076;-62
2023/05/05 09:03:54;;;;;;;8.27;1.58;;;16.20;99.90;;;;;;5069100;28;20095;-62
2023/05/05 09:06:22;;;;;;;6.60;1.48;;;16.20;99.90;;;;;;5050969;28;20115;-62
2023/05/05 09:08:48;;;;;;;9.70;1.48;;;16.30;99.90;;;;;;5070455;28;20210;-60
2023/05/05 09:11:15;;;;;;;7.32;1.40;;;16.30;99.90;;;;;;5054956;28;20094;-62
2023/05/05 09:13:42;;;;;;;4.97;1.05;;;16.40;99.90;;;;;;5073518;28;20064;-62
2023/05/05 09:16:09;;;;;;;23.52;2.47;;;16.60;99.90;;;;;;5075513;28;20078;-62
2023/05/05 09:18:37;;;;;;;41.53;5.00;;;16.70;99.90;;;;;;5076998;28;20072;-62
2023/05/05 09:21:23;;;;;;;7.15;1.38;;;16.70;99.90;;;;;;5072771;28;20056;-64
2023/05/05 09:24:09;;;;;;;4.65;1.17;;;16.70;99.90;;;;;;5072166;28;20098;-62
2023/05/05 09:26:46;;;;;;;8.15;1.92;;;16.60;99.90;;;;;;5072748;28;20123;-63
2023/05/05 09:29:19;;;;;;;7.78;1.25;;;16.50;99.90;;;;;;5071659;28;20102;-60
2023/05/05 09:32:06;;;;;;;5.25;1.30;;;16.50;99.90;;;;;;5070545;28;20051;-61
2023/05/05 09:34:34;;;;;;;11.45;1.80;;;16.50;99.90;;;;;;5054653;28;20052;-61
2023/05/05 09:37:01;;;;;;;11.30;1.55;;;16.50;99.90;;;;;;5071266;28;20098;-62
2023/05/05 09:39:28;;;;;;;7.63;1.45;;;16.60;99.90;;;;;;5054056;28;20052;-62
2023/05/05 09:41:54;;;;;;;6.50;1.30;;;16.60;99.90;;;;;;5069969;28;20568;-61
2023/05/05 09:44:38;;;;;;;19.13;2.75;;;16.70;99.90;;;;;;5070378;28;20098;-60
2023/05/05 09:47:05;;;;;;;10.18;2.50;;;16.70;99.90;;;;;;5061120;28;20041;-61
2023/05/05 09:49:44;;;;;;;14.07;1.92;;;16.90;99.90;;;;;;5071405;28;20082;-60
2023/05/05 09:52:13;;;;;;;15.07;1.83;;;17.20;99.90;;;;;;5070077;28;20106;-62
2023/05/05 09:54:40;;;;;;;7.68;1.77;;;17.30;99.90;;;;;;5071280;28;20565;-62
2023/05/05 09:57:07;;;;;;;14.15;2.80;;;17.50;99.90;;;;;;5053484;28;20052;-62
2023/05/05 09:59:34;;;;;;;8.40;1.55;;;17.70;99.90;;;;;;5071114;28;20135;-62
2023/05/05 10:02:10;;;;;;;10.38;1.50;;;18.00;99.90;;;;;;5069080;28;20048;-62
2023/05/05 10:04:37;;;;;;;6.00;1.40;;;18.50;99.90;;;;;;5071307;28;20110;-62
2023/05/05 10:07:04;;;;;;;7.93;1.67;;;18.70;99.90;;;;;;5053368;28;20067;-62
2023/05/05 10:09:31;;;;;;;6.78;2.00;;;18.60;99.90;;;;;;5071007;28;20048;-62
2023/05/05 10:11:58;;;;;;;7.57;1.70;;;18.80;99.90;;;;;;5053320;28;20455;-61
2023/05/05 10:14:25;;;;;;;10.27;1.80;;;19.00;99.90;;;;;;5071055;28;20127;-62
2023/05/05 10:16:53;;;;;;;10.80;1.85;;;18.80;99.90;;;;;;5071027;28;20380;-61
2023/05/05 10:19:23;;;;;;;5.55;1.70;;;18.80;99.90;;;;;;5070101;28;20098;-61
2023/05/05 10:21:51;;;;;;;8.13;1.60;;;19.00;99.90;;;;;;5071025;28;20122;-61
2023/05/05 10:24:26;;;;;;;7.88;1.65;;;19.00;99.90;;;;;;5069390;28;20048;-62
2023/05/05 10:26:53;;;;;;;13.38;1.55;;;19.30;99.90;;;;;;5069900;28;20044;-62
2023/05/05 10:29:41;;;;;;;25.45;2.97;;;19.60;99.90;;;;;;5057383;28;20048;-62
2023/05/05 10:32:21;;;;;;;6.30;1.52;;;19.90;99.90;;;;;;5055482;28;20131;-62
2023/05/05 10:35:08;;;;;;;10.02;1.90;;;20.00;99.90;;;;;;5040575;28;20044;-62
2023/05/05 10:37:38;;;;;;;16.00;1.85;;;20.20;99.90;;;;;;5052988;28;20066;-61
2023/05/05 10:40:08;;;;;;;10.18;1.65;;;20.00;99.90;;;;;;5052462;28;20040;-61
2023/05/05 10:42:37;;;;;;;20.00;2.83;;;19.80;99.90;;;;;;5070425;28;20400;-62
2023/05/05 10:45:04;;;;;;;8.80;1.70;;;19.60;99.90;;;;;;5052718;28;20041;-61
2023/05/05 10:47:31;;;;;;;10.50;1.98;;;19.10;99.90;;;;;;5052840;28;20135;-61
2023/05/05 10:50:05;;;;;;;10.68;1.50;;;18.70;99.90;;;;;;5052392;28;20048;-62
2023/05/05 10:52:42;;;;;;;8.07;1.23;;;18.40;99.90;;;;;;5037385;28;20411;-61
2023/05/05 10:55:12;;;;;;;9.93;1.60;;;18.20;99.90;;;;;;5053117;28;20487;-61
2023/05/05 10:57:40;;;;;;;7.82;1.42;;;18.00;99.90;;;;;;5069251;28;20112;-61
2023/05/05 11:00:08;;;;;;;9.82;1.00;;;18.00;99.90;;;;;;5068744;28;20052;-61
2023/05/05 11:02:35;;;;;;;12.65;1.95;;;18.10;99.90;;;;;;5069819;28;20078;-63
2023/05/05 11:05:09;;;;;;;5.32;2.00;;;18.20;99.90;;;;;;5068941;28;20036;-62
2023/05/05 11:07:36;;;;;;;;;;;18.40;99.90;;;;;;5070281;28;20119;-62
2023/05/05 11:10:04;;;;;;;7.63;1.20;;;18.60;99.90;;;;;;5069693;28;19921;-61
2023/05/05 11:12:32;;;;;;;4.13;1.25;;;18.70;99.90;;;;;;5069454;28;20044;-61
2023/05/05 11:15:40;;;;;;;6.30;1.63;;;18.80;99.90;;;;;;5068459;28;20499;-61
2023/05/05 11:18:07;;;;;;;11.10;1.90;;;18.90;99.90;;;;;;5050440;28;20047;-62
2023/05/05 11:20:38;;;;;;;7.38;1.42;;;18.90;99.90;;;;;;5040847;28;20096;-62
2023/05/05 11:23:05;;;;;;;6.93;1.60;;;19.00;99.90;;;;;;5068113;28;20044;-62
2023/05/05 11:25:35;;;;;;;4.90;1.20;;;19.00;99.90;;;;;;5069724;28;20458;-62
2023/05/05 11:28:03;;;;;;;8.13;1.50;;;19.10;99.90;;;;;;5069477;28;20471;-61
2023/05/05 11:30:30;;;;;;;8.35;1.63;;;19.00;99.90;;;;;;5069913;28;20135;-62
2023/05/05 11:33:25;;;;;;;6.55;1.73;;;19.00;99.90;;;;;;5055535;28;20132;-63
2023/05/05 11:35:56;;;;;;;10.63;1.48;;;19.10;99.90;;;;;;5068107;28;20082;-62
2023/05/05 11:38:26;;;;;;;8.93;1.70;;;19.00;99.90;;;;;;5068112;28;20044;-62
2023/05/05 11:40:55;;;;;;;8.07;1.95;;;18.90;99.90;;;;;;5035832;28;20492;-62
2023/05/05 11:43:22;;;;;;;8.70;1.42;;;18.80;99.90;;;;;;5068583;28;20139;-62
2023/05/05 11:45:50;;;;;;;4.95;1.17;;;18.80;99.90;;;;;;5068645;28;20045;-62
2023/05/05 11:48:27;;;;;;;8.65;1.25;;;18.80;99.90;;;;;;5067689;28;20048;-62
2023/05/05 11:50:54;;;;;;;5.28;1.17;;;18.90;99.90;;;;;;5068437;28;20094;-62
2023/05/05 11:53:20;;;;;;;7.22;1.42;;;18.90;99.90;;;;;;5069082;28;20045;-61
2023/05/05 11:55:47;;;;;;;13.32;2.08;;;18.90;99.90;;;;;;5067760;28;20491;-61
2023/05/05 11:58:20;;;;;;;6.18;1.40;;;18.90;99.90;;;;;;5069134;28;20044;-67
2023/05/05 12:00:47;;;;;;;11.75;1.95;;;18.80;99.90;;;;;;5069108;28;20098;-62
2023/05/05 12:03:14;;;;;;;20.23;2.20;;;19.10;99.90;;;;;;5068803;28;20128;-62
2023/05/05 12:05:41;;;;;;;6.88;2.28;;;19.10;99.90;;;;;;5069072;28;20653;-62
2023/05/05 12:08:09;;;;;;;3.08;1.17;;;19.20;99.90;;;;;;5051053;28;20211;-62
2023/05/05 12:10:36;;;;;;;12.68;2.10;;;19.30;99.90;;;;;;5068210;28;20551;-62
2023/05/05 12:13:02;;;;;;;6.32;1.38;;;19.50;99.90;;;;;;5050533;28;20119;-62
2023/05/05 12:15:31;;;;;;;11.98;2.08;;;19.70;99.90;;;;;;5058342;28;20454;-62
2023/05/05 12:17:57;;;;;;;6.53;1.67;;;19.80;99.90;;;;;;5066931;28;20138;-62
2023/05/05 12:20:30;;;;;;;7.30;1.38;;;19.80;99.90;;;;;;5069004;28;20059;-62
2023/05/05 12:23:01;;;;;;;7.80;1.45;;;19.90;99.90;;;;;;5067400;28;20095;-62
2023/05/05 12:25:35;;;;;;;7.40;1.42;;;19.70;99.90;;;;;;5067954;28;20050;-62
2023/05/05 12:28:03;;;;;;;3.75;0.88;;;19.60;99.90;;;;;;5062146;28;20080;-62
2023/05/05 12:30:30;;;;;;;6.70;1.10;;;19.60;99.90;;;;;;5060573;28;20635;-61
2023/05/05 12:33:02;;;;;;;6.50;1.45;;;19.70;99.90;;;;;;5056953;28;20048;-61
2023/05/05 12:35:29;;;;;;;7.72;2.20;;;19.80;99.90;;;;;;5060574;28;20041;-61
2023/05/05 12:37:57;;;;;;;10.98;1.50;;;20.00;99.90;;;;;;5055108;28;20040;-61
2023/05/05 12:40:45;;;;;;;4.20;1.20;;;20.00;99.90;;;;;;5063256;28;20532;-62
2023/05/05 12:43:32;;;;;;;11.05;2.20;;;20.00;99.90;;;;;;5057130;28;20041;-61
2023/05/05 12:46:19;;;;;;;8.65;1.48;;;20.00;99.90;;;;;;5060635;28;20377;-62
2023/05/05 12:48:58;;;;;;;9.32;1.40;;;20.00;99.90;;;;;;5052351;28;20106;-62
2023/05/05 12:51:25;;;;;;;4.13;1.25;;;19.90;99.90;;;;;;5059097;28;20087;-62
2023/05/05 12:54:03;;;;;;;10.93;1.52;;;20.00;99.90;;;;;;5057955;28;20530;-62